sensor_id;sensor_type;location;lat;lon;timestamp;pressure;altitude;pressure_sealevel;temperature;humidity
58471;BME280;44258;51.288;12.068;2023-01-19T00:00:27;99245.47;;;-1.25;57.54
58471;BME280;44258;51.288;12.068;2023-01-19T00:02:54;99247.38;;;-1.32;57.14
58471;BME280;44258;51.288;12.068;2023-01-19T00:05:20;99252.63;;;-1.31;57.14
58471;BME280;44258;51.288;12.068;2023-01-19T00:07:47;99251.63;;;-1.25;57.87
58471;BME280;44258;51.288;12.068;2023-01-19T00:10:14;99253.03;;;-1.12;57.69
58471;BME280;44258;51.288;12.068;2023-01-19T00:12:41;99245.00;;;-1.07;56.92
58471;BME280;44258;51.288;12.068;2023-01-19T00:15:09;99250.09;;;-0.99;57.13
58471;BME280;44258;51.288;12.068;2023-01-19T00:17:37;99260.56;;;-0.98;56.94
58471;BME280;44258;51.288;12.068;2023-01-19T00:20:11;99250.91;;;-0.97;57.04
58471;BME280;44258;51.288;12.068;2023-01-19T00:22:41;99256.94;;;-0.94;56.90
58471;BME280;44258;51.288;12.068;2023-01-19T00:25:28;99260.41;;;-0.92;56.87
58471;BME280;44258;51.288;12.068;2023-01-19T00:27:54;99263.06;;;-0.92;56.53
58471;BME280;44258;51.288;12.068;2023-01-19T00:30:21;99265.78;;;-0.95;57.39
58471;BME280;44258;51.288;12.068;2023-01-19T00:32:50;99266.81;;;-1.00;56.82
58471;BME280;44258;51.288;12.068;2023-01-19T00:35:16;99269.00;;;-0.83;56.90
58471;BME280;44258;51.288;12.068;2023-01-19T00:37:46;99269.72;;;-0.77;56.47
58471;BME280;44258;51.288;12.068;2023-01-19T00:40:13;99277.66;;;-0.78;56.69
58471;BME280;44258;51.288;12.068;2023-01-19T00:42:40;99287.28;;;-0.76;57.11
58471;BME280;44258;51.288;12.068;2023-01-19T00:45:07;99282.19;;;-0.83;56.90
58471;BME280;44258;51.288;12.068;2023-01-19T00:47:33;99283.00;;;-0.81;56.89
58471;BME280;44258;51.288;12.068;2023-01-19T00:50:02;99286.59;;;-0.84;56.82
58471;BME280;44258;51.288;12.068;2023-01-19T00:52:39;99285.09;;;-0.93;56.51
58471;BME280;44258;51.288;12.068;2023-01-19T00:55:08;99285.81;;;-0.87;57.15
58471;BME280;44258;51.288;12.068;2023-01-19T00:57:35;99296.34;;;-0.86;56.51
58471;BME280;44258;51.288;12.068;2023-01-19T01:00:04;99291.03;;;-0.84;57.38
58471;BME280;44258;51.288;12.068;2023-01-19T01:02:32;99292.75;;;-0.83;56.59
58471;BME280;44258;51.288;12.068;2023-01-19T01:04:58;99285.56;;;-1.11;57.12
58471;BME280;44258;51.288;12.068;2023-01-19T01:07:31;99289.81;;;-1.05;57.21
58471;BME280;44258;51.288;12.068;2023-01-19T01:09:59;99304.19;;;-0.83;57.09
58471;BME280;44258;51.288;12.068;2023-01-19T01:12:26;99295.47;;;-0.86;56.32
58471;BME280;44258;51.288;12.068;2023-01-19T01:15:14;99293.13;;;-0.97;55.99
58471;BME280;44258;51.288;12.068;2023-01-19T01:17:47;99304.41;;;-0.92;56.51
58471;BME280;44258;51.288;12.068;2023-01-19T01:20:19;99305.75;;;-0.76;56.84
58471;BME280;44258;51.288;12.068;2023-01-19T01:22:49;99313.63;;;-0.74;56.14
58471;BME280;44258;51.288;12.068;2023-01-19T01:25:18;99314.31;;;-0.67;56.04
58471;BME280;44258;51.288;12.068;2023-01-19T01:27:48;99308.16;;;-0.66;56.30
58471;BME280;44258;51.288;12.068;2023-01-19T01:30:21;99308.19;;;-0.68;56.62
58471;BME280;44258;51.288;12.068;2023-01-19T01:32:50;99319.41;;;-0.60;56.34
58471;BME280;44258;51.288;12.068;2023-01-19T01:35:17;99313.28;;;-0.60;55.36
58471;BME280;44258;51.288;12.068;2023-01-19T01:37:44;99315.25;;;-0.68;55.65
58471;BME280;44258;51.288;12.068;2023-01-19T01:40:17;99313.53;;;-0.71;56.05
58471;BME280;44258;51.288;12.068;2023-01-19T01:42:48;99312.63;;;-0.70;55.59
58471;BME280;44258;51.288;12.068;2023-01-19T01:45:27;99316.13;;;-0.70;56.15
58471;BME280;44258;51.288;12.068;2023-01-19T01:48:00;99310.00;;;-0.70;55.51
58471;BME280;44258;51.288;12.068;2023-01-19T01:50:29;99304.88;;;-0.76;55.54
58471;BME280;44258;51.288;12.068;2023-01-19T01:53:00;99307.09;;;-0.94;55.19
58471;BME280;44258;51.288;12.068;2023-01-19T01:55:30;99318.72;;;-1.01;55.29
58471;BME280;44258;51.288;12.068;2023-01-19T01:58:00;99313.75;;;-1.13;55.45
58471;BME280;44258;51.288;12.068;2023-01-19T02:00:31;99320.91;;;-1.18;55.87
58471;BME280;44258;51.288;12.068;2023-01-19T02:03:18;99320.22;;;-1.26;55.34
58471;BME280;44258;51.288;12.068;2023-01-19T02:05:44;99313.47;;;-1.38;55.68
58471;BME280;44258;51.288;12.068;2023-01-19T02:08:13;99319.91;;;-1.50;55.89
58471;BME280;44258;51.288;12.068;2023-01-19T02:11:01;99319.69;;;-1.41;56.17
58471;BME280;44258;51.288;12.068;2023-01-19T02:13:46;99324.06;;;-1.40;55.76
58471;BME280;44258;51.288;12.068;2023-01-19T02:16:13;99314.28;;;-1.36;55.89
58471;BME280;44258;51.288;12.068;2023-01-19T02:18:41;99330.16;;;-1.38;55.99
58471;BME280;44258;51.288;12.068;2023-01-19T02:21:11;99319.81;;;-1.47;56.10
58471;BME280;44258;51.288;12.068;2023-01-19T02:23:44;99327.69;;;-1.44;56.15
58471;BME280;44258;51.288;12.068;2023-01-19T02:26:13;99332.75;;;-1.36;56.03
58471;BME280;44258;51.288;12.068;2023-01-19T02:28:45;99325.63;;;-1.33;56.10
58471;BME280;44258;51.288;12.068;2023-01-19T02:31:13;99326.31;;;-1.24;56.40
58471;BME280;44258;51.288;12.068;2023-01-19T02:33:40;99324.59;;;-1.25;56.33
58471;BME280;44258;51.288;12.068;2023-01-19T02:36:08;99321.00;;;-1.23;56.16
58471;BME280;44258;51.288;12.068;2023-01-19T02:38:37;99317.53;;;-1.25;56.11
58471;BME280;44258;51.288;12.068;2023-01-19T02:41:06;99317.66;;;-1.30;56.01
58471;BME280;44258;51.288;12.068;2023-01-19T02:43:35;99317.72;;;-1.33;56.01
58471;BME280;44258;51.288;12.068;2023-01-19T02:46:02;99320.50;;;-1.39;56.20
58471;BME280;44258;51.288;12.068;2023-01-19T02:48:29;99304.16;;;-1.53;55.86
58471;BME280;44258;51.288;12.068;2023-01-19T02:50:57;99297.19;;;-1.56;56.46
58471;BME280;44258;51.288;12.068;2023-01-19T02:56:48;99283.16;;;-1.56;56.06
58471;BME280;44258;51.288;12.068;2023-01-19T02:59:27;99284.06;;;-1.59;55.89
58471;BME280;44258;51.288;12.068;2023-01-19T03:02:08;99291.13;;;-1.59;55.92
58471;BME280;44258;51.288;12.068;2023-01-19T03:04:47;99289.34;;;-1.59;56.41
58471;BME280;44258;51.288;12.068;2023-01-19T03:07:23;99291.13;;;-1.61;56.02
58471;BME280;44258;51.288;12.068;2023-01-19T03:10:01;99296.38;;;-1.59;55.84
58471;BME280;44258;51.288;12.068;2023-01-19T03:12:39;99302.56;;;-1.60;56.23
58471;BME280;44258;51.288;12.068;2023-01-19T03:15:12;99302.75;;;-1.68;55.56
58471;BME280;44258;51.288;12.068;2023-01-19T03:17:42;99294.13;;;-1.75;56.48
58471;BME280;44258;51.288;12.068;2023-01-19T03:20:13;99294.41;;;-1.88;56.29
58471;BME280;44258;51.288;12.068;2023-01-19T03:22:44;99294.72;;;-2.02;56.61
58471;BME280;44258;51.288;12.068;2023-01-19T03:25:16;99298.03;;;-1.93;56.02
58471;BME280;44258;51.288;12.068;2023-01-19T03:27:45;99293.44;;;-1.84;55.96
58471;BME280;44258;51.288;12.068;2023-01-19T03:30:18;99297.97;;;-1.91;56.10
58471;BME280;44258;51.288;12.068;2023-01-19T03:32:51;99300.13;;;-2.08;56.38
58471;BME280;44258;51.288;12.068;2023-01-19T03:35:23;99306.25;;;-2.08;56.81
58471;BME280;44258;51.288;12.068;2023-01-19T03:37:54;99311.75;;;-2.19;56.00
58471;BME280;44258;51.288;12.068;2023-01-19T03:40:25;99313.56;;;-2.22;56.77
58471;BME280;44258;51.288;12.068;2023-01-19T03:42:55;99317.13;;;-2.25;56.97
58471;BME280;44258;51.288;12.068;2023-01-19T03:45:22;99311.72;;;-2.17;56.80
58471;BME280;44258;51.288;12.068;2023-01-19T03:47:49;99309.28;;;-2.28;57.04
58471;BME280;44258;51.288;12.068;2023-01-19T03:50:20;99316.41;;;-2.32;57.37
58471;BME280;44258;51.288;12.068;2023-01-19T03:53:00;99316.09;;;-2.18;56.93
58471;BME280;44258;51.288;12.068;2023-01-19T03:55:30;99311.63;;;-2.14;56.26
58471;BME280;44258;51.288;12.068;2023-01-19T03:58:00;99316.06;;;-2.16;56.42
58471;BME280;44258;51.288;12.068;2023-01-19T04:00:27;99310.44;;;-1.99;56.39
58471;BME280;44258;51.288;12.068;2023-01-19T04:02:53;99307.66;;;-1.92;55.90
58471;BME280;44258;51.288;12.068;2023-01-19T04:05:20;99310.16;;;-1.87;55.68
58471;BME280;44258;51.288;12.068;2023-01-19T04:07:47;99311.88;;;-1.83;56.06
58471;BME280;44258;51.288;12.068;2023-01-19T04:10:15;99320.78;;;-1.88;55.55
58471;BME280;44258;51.288;12.068;2023-01-19T04:12:42;99325.25;;;-1.94;55.69
58471;BME280;44258;51.288;12.068;2023-01-19T04:15:12;99316.78;;;-2.08;56.30
58471;BME280;44258;51.288;12.068;2023-01-19T04:17:39;99318.47;;;-2.05;56.17
58471;BME280;44258;51.288;12.068;2023-01-19T04:20:09;99320.50;;;-2.18;56.33
58471;BME280;44258;51.288;12.068;2023-01-19T04:22:35;99325.13;;;-2.29;56.12
58471;BME280;44258;51.288;12.068;2023-01-19T04:25:04;99327.34;;;-2.55;57.25
58471;BME280;44258;51.288;12.068;2023-01-19T04:27:31;99324.56;;;-2.45;56.31
58471;BME280;44258;51.288;12.068;2023-01-19T04:29:57;99332.31;;;-2.38;56.68
58471;BME280;44258;51.288;12.068;2023-01-19T04:32:25;99332.84;;;-2.22;56.43
58471;BME280;44258;51.288;12.068;2023-01-19T04:34:52;99338.81;;;-2.12;56.64
58471;BME280;44258;51.288;12.068;2023-01-19T04:37:18;99337.88;;;-2.10;56.50
58471;BME280;44258;51.288;12.068;2023-01-19T04:39:45;99340.50;;;-2.10;56.67
58471;BME280;44258;51.288;12.068;2023-01-19T04:42:11;99341.44;;;-2.12;56.24
58471;BME280;44258;51.288;12.068;2023-01-19T04:44:38;99347.44;;;-2.05;56.37
58471;BME280;44258;51.288;12.068;2023-01-19T04:47:05;99349.94;;;-1.99;56.46
58471;BME280;44258;51.288;12.068;2023-01-19T04:49:33;99340.38;;;-2.03;56.65
58471;BME280;44258;51.288;12.068;2023-01-19T04:52:02;99343.00;;;-2.03;55.72
58471;BME280;44258;51.288;12.068;2023-01-19T04:54:29;99343.00;;;-2.03;56.16
58471;BME280;44258;51.288;12.068;2023-01-19T04:56:56;99343.81;;;-1.98;55.66
58471;BME280;44258;51.288;12.068;2023-01-19T04:59:23;99337.69;;;-2.00;56.24
58471;BME280;44258;51.288;12.068;2023-01-19T05:01:49;99336.06;;;-2.07;55.96
58471;BME280;44258;51.288;12.068;2023-01-19T05:04:16;99338.94;;;-2.18;56.35
58471;BME280;44258;51.288;12.068;2023-01-19T05:06:46;99340.88;;;-2.28;56.35
58471;BME280;44258;51.288;12.068;2023-01-19T05:09:12;99344.78;;;-2.47;56.57
58471;BME280;44258;51.288;12.068;2023-01-19T05:11:39;99342.84;;;-2.38;56.95
58471;BME280;44258;51.288;12.068;2023-01-19T05:14:06;99332.34;;;-2.39;56.71
58471;BME280;44258;51.288;12.068;2023-01-19T05:16:36;99337.84;;;-2.52;57.66
58471;BME280;44258;51.288;12.068;2023-01-19T05:19:03;99339.63;;;-2.54;57.73
58471;BME280;44258;51.288;12.068;2023-01-19T05:21:29;99341.97;;;-2.38;57.63
58471;BME280;44258;51.288;12.068;2023-01-19T05:23:57;99338.38;;;-2.34;57.09
58471;BME280;44258;51.288;12.068;2023-01-19T05:26:24;99339.38;;;-2.40;57.96
58471;BME280;44258;51.288;12.068;2023-01-19T05:28:51;99343.03;;;-2.48;58.00
58471;BME280;44258;51.288;12.068;2023-01-19T05:31:17;99348.38;;;-2.52;57.64
58471;BME280;44258;51.288;12.068;2023-01-19T05:33:44;99344.41;;;-2.74;59.01
58471;BME280;44258;51.288;12.068;2023-01-19T05:36:10;99347.19;;;-2.85;59.26
58471;BME280;44258;51.288;12.068;2023-01-19T05:38:37;99349.47;;;-2.63;58.59
58471;BME280;44258;51.288;12.068;2023-01-19T05:41:05;99343.44;;;-2.70;58.74
58471;BME280;44258;51.288;12.068;2023-01-19T05:43:32;99354.13;;;-2.79;59.29
58471;BME280;44258;51.288;12.068;2023-01-19T05:46:02;99348.53;;;-2.61;59.06
58471;BME280;44258;51.288;12.068;2023-01-19T05:48:29;99357.75;;;-2.38;58.71
58471;BME280;44258;51.288;12.068;2023-01-19T05:50:57;99365.50;;;-2.29;58.17
58471;BME280;44258;51.288;12.068;2023-01-19T05:53:23;99352.97;;;-2.18;57.71
58471;BME280;44258;51.288;12.068;2023-01-19T05:55:50;99363.25;;;-2.05;57.86
58471;BME280;44258;51.288;12.068;2023-01-19T05:58:18;99364.78;;;-1.95;57.80
58471;BME280;44258;51.288;12.068;2023-01-19T06:00:44;99376.13;;;-1.90;57.87
58471;BME280;44258;51.288;12.068;2023-01-19T06:03:11;99364.75;;;-1.92;57.25
58471;BME280;44258;51.288;12.068;2023-01-19T06:05:38;99374.50;;;-1.97;57.46
58471;BME280;44258;51.288;12.068;2023-01-19T06:08:05;99371.16;;;-2.05;57.68
58471;BME280;44258;51.288;12.068;2023-01-19T06:10:31;99372.88;;;-2.03;57.74
58471;BME280;44258;51.288;12.068;2023-01-19T06:13:01;99372.06;;;-2.06;57.83
58471;BME280;44258;51.288;12.068;2023-01-19T06:15:28;99369.66;;;-2.17;58.21
58471;BME280;44258;51.288;12.068;2023-01-19T06:17:55;99370.53;;;-2.18;57.43
58471;BME280;44258;51.288;12.068;2023-01-19T06:20:21;99373.97;;;-2.13;57.44
58471;BME280;44258;51.288;12.068;2023-01-19T06:22:48;99370.41;;;-2.12;57.75
58471;BME280;44258;51.288;12.068;2023-01-19T06:25:14;99375.81;;;-2.18;57.25
58471;BME280;44258;51.288;12.068;2023-01-19T06:27:42;99370.50;;;-2.15;57.14
58471;BME280;44258;51.288;12.068;2023-01-19T06:30:11;99368.72;;;-2.15;57.53
58471;BME280;44258;51.288;12.068;2023-01-19T06:32:39;99376.53;;;-2.12;57.45
58471;BME280;44258;51.288;12.068;2023-01-19T06:35:06;99375.78;;;-2.17;57.36
58471;BME280;44258;51.288;12.068;2023-01-19T06:37:33;99379.38;;;-2.21;56.88
58471;BME280;44258;51.288;12.068;2023-01-19T06:40:00;99378.75;;;-2.34;57.75
58471;BME280;44258;51.288;12.068;2023-01-19T06:42:26;99377.38;;;-2.55;58.13
58471;BME280;44258;51.288;12.068;2023-01-19T06:44:53;99373.88;;;-2.57;58.04
58471;BME280;44258;51.288;12.068;2023-01-19T06:47:20;99381.84;;;-2.60;58.31
58471;BME280;44258;51.288;12.068;2023-01-19T06:49:48;99378.31;;;-2.59;58.02
58471;BME280;44258;51.288;12.068;2023-01-19T06:52:14;99380.19;;;-2.64;58.15
58471;BME280;44258;51.288;12.068;2023-01-19T06:54:42;99381.00;;;-2.62;58.00
58471;BME280;44258;51.288;12.068;2023-01-19T06:57:09;99376.75;;;-2.69;58.41
58471;BME280;44258;51.288;12.068;2023-01-19T06:59:36;99379.69;;;-2.86;58.60
58471;BME280;44258;51.288;12.068;2023-01-19T07:02:02;99383.59;;;-2.60;58.61
58471;BME280;44258;51.288;12.068;2023-01-19T07:04:29;99375.41;;;-2.42;57.82
58471;BME280;44258;51.288;12.068;2023-01-19T07:06:57;99376.97;;;-2.32;58.11
58471;BME280;44258;51.288;12.068;2023-01-19T07:09:24;99374.22;;;-2.27;57.35
58471;BME280;44258;51.288;12.068;2023-01-19T07:11:52;99379.53;;;-2.30;58.29
58471;BME280;44258;51.288;12.068;2023-01-19T07:14:19;99381.22;;;-2.26;57.98
58471;BME280;44258;51.288;12.068;2023-01-19T07:16:46;99387.28;;;-2.22;57.65
58471;BME280;44258;51.288;12.068;2023-01-19T07:19:12;99387.41;;;-2.27;57.66
58471;BME280;44258;51.288;12.068;2023-01-19T07:21:39;99389.19;;;-2.29;57.67
58471;BME280;44258;51.288;12.068;2023-01-19T07:24:07;99397.19;;;-2.34;58.21
58471;BME280;44258;51.288;12.068;2023-01-19T07:26:34;99405.84;;;-2.28;57.81
58471;BME280;44258;51.288;12.068;2023-01-19T07:29:01;99404.03;;;-2.25;58.24
58471;BME280;44258;51.288;12.068;2023-01-19T07:31:27;99416.16;;;-2.18;57.81
58471;BME280;44258;51.288;12.068;2023-01-19T07:33:54;99404.78;;;-2.18;58.01
58471;BME280;44258;51.288;12.068;2023-01-19T07:36:20;99415.22;;;-2.14;57.90
58471;BME280;44258;51.288;12.068;2023-01-19T07:38:47;99416.94;;;-2.11;58.25
58471;BME280;44258;51.288;12.068;2023-01-19T07:41:15;99423.00;;;-2.07;57.98
58471;BME280;44258;51.288;12.068;2023-01-19T07:43:42;99421.19;;;-2.04;57.43
58471;BME280;44258;51.288;12.068;2023-01-19T07:46:09;99434.34;;;-2.04;57.36
58471;BME280;44258;51.288;12.068;2023-01-19T07:48:35;99428.97;;;-1.98;57.83
58471;BME280;44258;51.288;12.068;2023-01-19T07:51:03;99426.19;;;-1.92;57.97
58471;BME280;44258;51.288;12.068;2023-01-19T07:53:32;99431.44;;;-1.90;57.82
58471;BME280;44258;51.288;12.068;2023-01-19T07:55:59;99426.09;;;-1.87;57.71
58471;BME280;44258;51.288;12.068;2023-01-19T07:58:27;99430.31;;;-1.77;57.83
58471;BME280;44258;51.288;12.068;2023-01-19T08:00:54;99426.75;;;-1.74;58.06
58471;BME280;44258;51.288;12.068;2023-01-19T08:03:20;99433.72;;;-1.72;58.36
58471;BME280;44258;51.288;12.068;2023-01-19T08:05:49;99435.41;;;-1.69;58.46
58471;BME280;44258;51.288;12.068;2023-01-19T08:08:17;99426.66;;;-1.70;57.54
58471;BME280;44258;51.288;12.068;2023-01-19T08:10:44;99436.44;;;-1.76;58.60
58471;BME280;44258;51.288;12.068;2023-01-19T08:13:14;99434.53;;;-1.70;58.35
58471;BME280;44258;51.288;12.068;2023-01-19T08:15:42;99444.91;;;-1.60;58.35
58471;BME280;44258;51.288;12.068;2023-01-19T08:18:08;99437.75;;;-1.55;58.33
58471;BME280;44258;51.288;12.068;2023-01-19T08:20:36;99449.16;;;-1.53;59.23
58471;BME280;44258;51.288;12.068;2023-01-19T08:23:02;99441.19;;;-1.50;59.48
58471;BME280;44258;51.288;12.068;2023-01-19T08:25:33;99445.41;;;-1.43;58.76
58471;BME280;44258;51.288;12.068;2023-01-19T08:28:01;99456.53;;;-1.28;59.07
58471;BME280;44258;51.288;12.068;2023-01-19T08:30:27;99450.41;;;-1.29;59.12
58471;BME280;44258;51.288;12.068;2023-01-19T08:32:56;99455.81;;;-1.35;59.22
58471;BME280;44258;51.288;12.068;2023-01-19T08:35:28;99445.97;;;-1.28;59.80
58471;BME280;44258;51.288;12.068;2023-01-19T08:37:54;99451.13;;;-1.24;59.45
58471;BME280;44258;51.288;12.068;2023-01-19T08:40:25;99449.44;;;-1.26;59.60
58471;BME280;44258;51.288;12.068;2023-01-19T08:42:52;99448.44;;;-1.19;60.07
58471;BME280;44258;51.288;12.068;2023-01-19T08:45:18;99454.41;;;-1.11;59.87
58471;BME280;44258;51.288;12.068;2023-01-19T08:47:45;99450.84;;;-1.10;59.99
58471;BME280;44258;51.288;12.068;2023-01-19T08:50:13;99457.16;;;-1.16;60.41
58471;BME280;44258;51.288;12.068;2023-01-19T08:52:39;99455.97;;;-1.04;59.99
58471;BME280;44258;51.288;12.068;2023-01-19T08:55:07;99458.31;;;-0.92;59.55
58471;BME280;44258;51.288;12.068;2023-01-19T08:57:38;99459.78;;;-0.78;59.27
58471;BME280;44258;51.288;12.068;2023-01-19T09:00:06;99454.81;;;-0.55;59.13
58471;BME280;44258;51.288;12.068;2023-01-19T09:02:35;99458.50;;;-0.62;59.39
58471;BME280;44258;51.288;12.068;2023-01-19T09:05:02;99460.88;;;-0.51;59.42
58471;BME280;44258;51.288;12.068;2023-01-19T09:07:31;99459.00;;;-0.46;59.58
58471;BME280;44258;51.288;12.068;2023-01-19T09:09:57;99467.72;;;-0.42;59.19
58471;BME280;44258;51.288;12.068;2023-01-19T09:12:24;99466.91;;;-0.44;59.61
58471;BME280;44258;51.288;12.068;2023-01-19T09:14:50;99469.25;;;-0.34;58.97
58471;BME280;44258;51.288;12.068;2023-01-19T09:17:17;99468.28;;;-0.30;58.96
58471;BME280;44258;51.288;12.068;2023-01-19T09:19:44;99467.91;;;-0.16;59.00
58471;BME280;44258;51.288;12.068;2023-01-19T09:22:10;99470.41;;;-0.10;59.07
58471;BME280;44258;51.288;12.068;2023-01-19T09:24:38;99465.81;;;-0.03;58.74
58471;BME280;44258;51.288;12.068;2023-01-19T09:27:05;99466.28;;;0.13;58.87
58471;BME280;44258;51.288;12.068;2023-01-19T09:29:32;99466.59;;;0.34;58.78
58471;BME280;44258;51.288;12.068;2023-01-19T09:31:59;99461.13;;;0.40;58.14
58471;BME280;44258;51.288;12.068;2023-01-19T09:34:26;99456.69;;;0.40;58.23
58471;BME280;44258;51.288;12.068;2023-01-19T09:36:53;99475.22;;;0.39;58.39
58471;BME280;44258;51.288;12.068;2023-01-19T09:39:20;99464.09;;;0.27;58.27
58471;BME280;44258;51.288;12.068;2023-01-19T09:41:57;99474.09;;;0.16;59.23
58471;BME280;44258;51.288;12.068;2023-01-19T09:44:27;99470.91;;;0.36;58.67
58471;BME280;44258;51.288;12.068;2023-01-19T09:46:54;99470.91;;;0.36;58.80
58471;BME280;44258;51.288;12.068;2023-01-19T09:49:26;99477.88;;;0.39;58.83
58471;BME280;44258;51.288;12.068;2023-01-19T09:51:57;99472.34;;;0.48;58.55
58471;BME280;44258;51.288;12.068;2023-01-19T09:54:28;99474.19;;;0.44;58.76
58471;BME280;44258;51.288;12.068;2023-01-19T09:56:59;99473.59;;;0.35;58.78
58471;BME280;44258;51.288;12.068;2023-01-19T09:59:28;99468.28;;;0.35;58.78
58471;BME280;44258;51.288;12.068;2023-01-19T10:02:05;99455.97;;;0.35;59.45
58471;BME280;44258;51.288;12.068;2023-01-19T10:04:39;99456.34;;;0.53;59.03
58471;BME280;44258;51.288;12.068;2023-01-19T10:07:15;99443.56;;;0.67;59.28
58471;BME280;44258;51.288;12.068;2023-01-19T10:10:00;99438.44;;;0.90;58.91
58471;BME280;44258;51.288;12.068;2023-01-19T10:12:39;99441.69;;;1.00;58.64
58471;BME280;44258;51.288;12.068;2023-01-19T10:15:16;99438.69;;;1.11;58.59
58471;BME280;44258;51.288;12.068;2023-01-19T10:17:52;99438.34;;;0.94;58.49
58471;BME280;44258;51.288;12.068;2023-01-19T10:20:26;99443.75;;;0.90;58.92
58471;BME280;44258;51.288;12.068;2023-01-19T10:22:54;99437.19;;;0.74;59.33
58471;BME280;44258;51.288;12.068;2023-01-19T10:25:26;99433.31;;;0.86;58.63
58471;BME280;44258;51.288;12.068;2023-01-19T10:27:54;99434.75;;;0.96;59.06
58471;BME280;44258;51.288;12.068;2023-01-19T10:30:24;99420.91;;;0.88;59.15
58471;BME280;44258;51.288;12.068;2023-01-19T10:32:52;99424.34;;;0.90;58.92
58471;BME280;44258;51.288;12.068;2023-01-19T10:35:21;99423.63;;;0.85;59.24
58471;BME280;44258;51.288;12.068;2023-01-19T10:37:50;99416.69;;;0.81;59.18
58471;BME280;44258;51.288;12.068;2023-01-19T10:40:25;99409.56;;;0.83;59.21
58471;BME280;44258;51.288;12.068;2023-01-19T10:42:52;99418.28;;;0.86;59.26
58471;BME280;44258;51.288;12.068;2023-01-19T10:45:23;99419.34;;;0.81;59.41
58471;BME280;44258;51.288;12.068;2023-01-19T10:47:51;99409.72;;;0.48;60.19
58471;BME280;44258;51.288;12.068;2023-01-19T10:50:23;99409.50;;;0.56;59.75
58471;BME280;44258;51.288;12.068;2023-01-19T10:52:51;99407.94;;;0.79;59.58
58471;BME280;44258;51.288;12.068;2023-01-19T10:55:25;99405.88;;;0.59;60.02
58471;BME280;44258;51.288;12.068;2023-01-19T10:57:52;99408.72;;;0.53;59.96
58471;BME280;44258;51.288;12.068;2023-01-19T11:00:32;99401.19;;;0.39;60.23
58471;BME280;44258;51.288;12.068;2023-01-19T11:02:59;99403.66;;;0.45;59.90
58471;BME280;44258;51.288;12.068;2023-01-19T11:05:28;99406.63;;;0.34;59.82
58471;BME280;44258;51.288;12.068;2023-01-19T11:07:55;99413.47;;;0.41;60.19
58471;BME280;44258;51.288;12.068;2023-01-19T11:10:23;99420.34;;;0.47;60.31
58471;BME280;44258;51.288;12.068;2023-01-19T11:13:09;99416.81;;;0.48;60.29
58471;BME280;44258;51.288;12.068;2023-01-19T11:15:42;99421.53;;;0.66;59.82
58471;BME280;44258;51.288;12.068;2023-01-19T11:18:21;99419.09;;;0.88;59.67
58471;BME280;44258;51.288;12.068;2023-01-19T11:20:50;99421.16;;;0.79;59.27
58471;BME280;44258;51.288;12.068;2023-01-19T11:23:23;99420.00;;;0.87;59.10
58471;BME280;44258;51.288;12.068;2023-01-19T11:25:52;99415.34;;;0.96;58.65
58471;BME280;44258;51.288;12.068;2023-01-19T11:28:25;99410.50;;;0.82;59.03
58471;BME280;44258;51.288;12.068;2023-01-19T11:30:56;99422.09;;;0.48;60.15
58471;BME280;44258;51.288;12.068;2023-01-19T11:33:25;99417.63;;;0.50;60.36
58471;BME280;44258;51.288;12.068;2023-01-19T11:36:05;99410.84;;;0.69;60.14
58471;BME280;44258;51.288;12.068;2023-01-19T11:38:40;99406.25;;;1.04;59.04
58471;BME280;44258;51.288;12.068;2023-01-19T11:41:15;99408.50;;;1.17;58.75
58471;BME280;44258;51.288;12.068;2023-01-19T11:43:43;99402.84;;;1.01;58.94
58471;BME280;44258;51.288;12.068;2023-01-19T11:46:12;99400.88;;;1.06;58.56
58471;BME280;44258;51.288;12.068;2023-01-19T11:48:42;99401.44;;;0.89;58.51
58471;BME280;44258;51.288;12.068;2023-01-19T11:51:13;99397.38;;;1.05;58.36
58471;BME280;44258;51.288;12.068;2023-01-19T11:53:42;99401.16;;;0.98;58.80
58471;BME280;44258;51.288;12.068;2023-01-19T11:56:13;99395.13;;;0.93;59.27
58471;BME280;44258;51.288;12.068;2023-01-19T11:58:42;99392.28;;;0.99;59.09
58471;BME280;44258;51.288;12.068;2023-01-19T12:01:18;99403.44;;;1.09;58.79
58471;BME280;44258;51.288;12.068;2023-01-19T12:03:50;99408.34;;;1.21;58.83
58471;BME280;44258;51.288;12.068;2023-01-19T12:06:24;99405.28;;;1.07;58.88
58471;BME280;44258;51.288;12.068;2023-01-19T12:08:53;99406.44;;;0.98;59.05
58471;BME280;44258;51.288;12.068;2023-01-19T12:11:24;99409.53;;;1.13;58.78
58471;BME280;44258;51.288;12.068;2023-01-19T12:13:52;99401.06;;;1.28;58.32
58471;BME280;44258;51.288;12.068;2023-01-19T12:16:21;99392.88;;;1.36;58.20
58471;BME280;44258;51.288;12.068;2023-01-19T12:18:52;99393.97;;;1.28;58.13
58471;BME280;44258;51.288;12.068;2023-01-19T12:21:20;99399.53;;;1.47;58.04
58471;BME280;44258;51.288;12.068;2023-01-19T12:23:55;99397.91;;;1.43;58.04
58471;BME280;44258;51.288;12.068;2023-01-19T12:26:32;99399.53;;;1.47;57.83
58471;BME280;44258;51.288;12.068;2023-01-19T12:29:05;99400.75;;;1.64;57.63
58471;BME280;44258;51.288;12.068;2023-01-19T12:31:37;99398.31;;;1.31;57.91
58471;BME280;44258;51.288;12.068;2023-01-19T12:34:28;99402.00;;;1.27;58.26
58471;BME280;44258;51.288;12.068;2023-01-19T12:37:01;99394.69;;;1.34;58.31
58471;BME280;44258;51.288;12.068;2023-01-19T12:39:30;99402.84;;;1.54;58.26
58471;BME280;44258;51.288;12.068;2023-01-19T12:42:06;99389.25;;;1.38;57.91
58471;BME280;44258;51.288;12.068;2023-01-19T12:44:38;99404.88;;;1.46;58.22
58471;BME280;44258;51.288;12.068;2023-01-19T12:47:19;99393.97;;;1.28;58.32
58471;BME280;44258;51.288;12.068;2023-01-19T12:49:51;99400.69;;;1.39;58.37
58471;BME280;44258;51.288;12.068;2023-01-19T12:52:29;99396.03;;;1.47;58.19
58471;BME280;44258;51.288;12.068;2023-01-19T12:55:01;99411.13;;;1.45;58.55
58471;BME280;44258;51.288;12.068;2023-01-19T12:57:33;99408.19;;;1.52;58.07
58471;BME280;44258;51.288;12.068;2023-01-19T13:00:05;99413.59;;;1.49;58.30
58471;BME280;44258;51.288;12.068;2023-01-19T13:02:45;99416.59;;;1.65;57.99
58471;BME280;44258;51.288;12.068;2023-01-19T13:05:18;99421.41;;;1.79;57.59
58471;BME280;44258;51.288;12.068;2023-01-19T13:08:12;99417.03;;;2.03;57.18